メインページ
METAR-TAF:

METAR-TAF

空港 :

横田, 日本

横田飛行場

緯度: 35-45N, 経度: 139-21E, 海抜: 139m

現時点の気象観測

当レポートは55分前の22:56(UTC)に作成
無風
気温 0°C
湿度 55%
気圧 1023 hPa
視程: 16.1km
高度5000ftの曇り

METAR: RJTY 182256Z AUTO 00000KT 10SM OVC050 00/M08 A3020 RMK AO2 SLP239 T00011081 FZRANO $

時間: 08:51 (23:51 UTC)

予報

当レポートは2時間9分前の21:42(UTC)に作成
予報は18日の 21時(UTC)から 20日の 03時(UTC)まで有効
変向風 6kt
視程10km以上
高度3500ftの千切れ雲あり
19日の 00時(UTC)から 19日の 01時(UTC)まで徐々に
南/南東の風 6kt
視程10km以上
高度3500ftの雲は散在している
19日の 05時(UTC)から 19日の 06時(UTC)まで徐々に
南/南東の風 9kt
視程: 1912m
高度3000ftの千切れ雲あり

TAF: RJTY 182142Z 1821/2003 VRB06KT 9999 BKN035 QNH3015INS BECMG 1900/1901 15006KT 9999 SCT035 QNH3004INS BECMG 1905/1906 15009KT 9999 BKN030 600304 QNH2998INS WND 3506KT AFT 1912 TX09/1906Z TNM01/1822Z

4,000以上の空港の気象観測と天気予報(METAR報とTAF報)

利用可能な観測所は地図上に黄色い丸と赤い丸で示す。

丸の上にカーソルを重ねると観測所名を参照できる。

次にクリックすると気象観測と天気予報を参照できる。

マップの切り替え:黒色「×」印の緑ボタンをクリックして拡大、「-」印の緑ボタンをクリックして縮小、緑色の三角印をクリックして隣りの地図に切り替え


METAR-TAF: